sensor_id;sensor_type;location;lat;lon;timestamp;pressure;altitude;pressure_sealevel;temperature;humidity
76603;BME280;65075;48.390;17.598;2023-07-24T00:00:40;99326.72;;;23.56;63.66
76603;BME280;65075;48.390;17.598;2023-07-24T00:03:06;99331.19;;;23.76;62.63
76603;BME280;65075;48.390;17.598;2023-07-24T00:05:32;99334.31;;;23.12;64.95
76603;BME280;65075;48.390;17.598;2023-07-24T00:07:57;99340.16;;;23.70;62.21
76603;BME280;65075;48.390;17.598;2023-07-24T00:10:23;99331.50;;;24.64;59.65
76603;BME280;65075;48.390;17.598;2023-07-24T00:12:48;99302.75;;;24.60;58.54
76603;BME280;65075;48.390;17.598;2023-07-24T00:15:14;99319.75;;;25.61;56.10
76603;BME280;65075;48.390;17.598;2023-07-24T00:17:39;99332.84;;;23.97;60.50
76603;BME280;65075;48.390;17.598;2023-07-24T00:20:06;99330.78;;;23.93;61.53
76603;BME280;65075;48.390;17.598;2023-07-24T00:22:31;99327.03;;;24.21;61.08
76603;BME280;65075;48.390;17.598;2023-07-24T00:24:57;99335.50;;;23.11;64.47
76603;BME280;65075;48.390;17.598;2023-07-24T00:27:22;99319.91;;;23.38;63.89
76603;BME280;65075;48.390;17.598;2023-07-24T00:29:48;99330.41;;;25.33;56.53
76603;BME280;65075;48.390;17.598;2023-07-24T00:32:13;99334.22;;;25.21;57.67
76603;BME280;65075;48.390;17.598;2023-07-24T00:34:39;99326.28;;;25.72;55.27
76603;BME280;65075;48.390;17.598;2023-07-24T00:37:05;99326.22;;;25.69;56.12
76603;BME280;65075;48.390;17.598;2023-07-24T00:39:30;99324.25;;;25.46;55.95
76603;BME280;65075;48.390;17.598;2023-07-24T00:41:56;99333.63;;;24.89;58.09
76603;BME280;65075;48.390;17.598;2023-07-24T00:44:21;99323.34;;;25.16;57.08
76603;BME280;65075;48.390;17.598;2023-07-24T00:46:47;99323.66;;;24.50;59.18
76603;BME280;65075;48.390;17.598;2023-07-24T00:49:13;99312.69;;;23.68;61.85
76603;BME280;65075;48.390;17.598;2023-07-24T00:51:39;99321.06;;;24.61;58.88
76603;BME280;65075;48.390;17.598;2023-07-24T00:54:06;99316.84;;;24.28;59.63
76603;BME280;65075;48.390;17.598;2023-07-24T00:56:33;99329.13;;;23.58;62.05
76603;BME280;65075;48.390;17.598;2023-07-24T00:59:00;99318.38;;;23.41;63.34
76603;BME280;65075;48.390;17.598;2023-07-24T01:01:26;99322.53;;;23.81;61.57
76603;BME280;65075;48.390;17.598;2023-07-24T01:03:52;99329.41;;;25.67;55.57
76603;BME280;65075;48.390;17.598;2023-07-24T01:06:18;99320.97;;;23.65;61.39
76603;BME280;65075;48.390;17.598;2023-07-24T01:08:44;99315.56;;;24.83;58.66
76603;BME280;65075;48.390;17.598;2023-07-24T01:11:19;99293.84;;;24.16;59.82
76603;BME280;65075;48.390;17.598;2023-07-24T01:13:56;99318.88;;;24.51;59.16
76603;BME280;65075;48.390;17.598;2023-07-24T01:16:28;99299.13;;;24.21;59.65
76603;BME280;65075;48.390;17.598;2023-07-24T01:19:02;99318.53;;;24.33;59.88
76603;BME280;65075;48.390;17.598;2023-07-24T01:21:44;99261.88;;;23.24;62.10
76603;BME280;65075;48.390;17.598;2023-07-24T01:24:46;99306.84;;;22.79;64.68
76603;BME280;65075;48.390;17.598;2023-07-24T01:27:20;99324.88;;;23.01;63.74
76603;BME280;65075;48.390;17.598;2023-07-24T01:29:45;99307.56;;;23.55;62.27
76603;BME280;65075;48.390;17.598;2023-07-24T01:32:11;99312.44;;;23.92;61.05
76603;BME280;65075;48.390;17.598;2023-07-24T01:34:37;99313.97;;;24.25;59.61
76603;BME280;65075;48.390;17.598;2023-07-24T01:37:02;99311.47;;;23.85;60.92
76603;BME280;65075;48.390;17.598;2023-07-24T01:39:29;99302.78;;;23.71;61.49
76603;BME280;65075;48.390;17.598;2023-07-24T01:41:55;99311.63;;;23.42;61.92
76603;BME280;65075;48.390;17.598;2023-07-24T01:44:21;99312.06;;;23.44;61.77
76603;BME280;65075;48.390;17.598;2023-07-24T01:46:46;99312.41;;;23.26;63.53
76603;BME280;65075;48.390;17.598;2023-07-24T01:49:12;99322.25;;;24.40;59.91
76603;BME280;65075;48.390;17.598;2023-07-24T01:51:37;99323.00;;;23.21;61.93
76603;BME280;65075;48.390;17.598;2023-07-24T01:54:03;99298.16;;;23.28;62.56
76603;BME280;65075;48.390;17.598;2023-07-24T01:56:28;99322.84;;;23.61;61.17
76603;BME280;65075;48.390;17.598;2023-07-24T01:58:54;99322.72;;;22.95;64.09
76603;BME280;65075;48.390;17.598;2023-07-24T02:01:19;99325.28;;;23.97;60.87
76603;BME280;65075;48.390;17.598;2023-07-24T02:03:45;99322.75;;;23.92;60.34
76603;BME280;65075;48.390;17.598;2023-07-24T02:06:10;99293.44;;;22.69;63.68
76603;BME280;65075;48.390;17.598;2023-07-24T02:08:36;99326.72;;;23.25;63.13
76603;BME280;65075;48.390;17.598;2023-07-24T02:11:01;99316.38;;;23.57;62.83
76603;BME280;65075;48.390;17.598;2023-07-24T02:13:27;99321.63;;;23.43;63.26
76603;BME280;65075;48.390;17.598;2023-07-24T02:15:52;99316.38;;;23.91;61.18
76603;BME280;65075;48.390;17.598;2023-07-24T02:18:19;99325.69;;;23.17;63.57
76603;BME280;65075;48.390;17.598;2023-07-24T02:20:51;99272.44;;;24.20;59.73
76603;BME280;65075;48.390;17.598;2023-07-24T02:23:16;99330.28;;;24.07;60.43
76603;BME280;65075;48.390;17.598;2023-07-24T02:25:42;99338.53;;;24.58;59.31
76603;BME280;65075;48.390;17.598;2023-07-24T02:28:08;99335.63;;;24.51;59.49
76603;BME280;65075;48.390;17.598;2023-07-24T02:30:37;99326.00;;;24.10;60.52
76603;BME280;65075;48.390;17.598;2023-07-24T02:33:03;99338.56;;;24.77;58.19
76603;BME280;65075;48.390;17.598;2023-07-24T02:35:28;99310.59;;;24.00;61.10
76603;BME280;65075;48.390;17.598;2023-07-24T02:37:54;99313.47;;;24.04;59.94
76603;BME280;65075;48.390;17.598;2023-07-24T02:40:19;99324.75;;;23.41;62.47
76603;BME280;65075;48.390;17.598;2023-07-24T02:42:45;99328.44;;;24.30;60.32
76603;BME280;65075;48.390;17.598;2023-07-24T02:45:11;99332.97;;;22.63;65.68
76603;BME280;65075;48.390;17.598;2023-07-24T02:47:36;99328.50;;;23.99;61.42
76603;BME280;65075;48.390;17.598;2023-07-24T02:50:03;99325.50;;;24.42;59.25
76603;BME280;65075;48.390;17.598;2023-07-24T02:52:29;99326.06;;;24.32;59.98
76603;BME280;65075;48.390;17.598;2023-07-24T02:54:55;99331.22;;;24.88;58.24
76603;BME280;65075;48.390;17.598;2023-07-24T02:57:20;99325.44;;;22.91;65.15
76603;BME280;65075;48.390;17.598;2023-07-24T02:59:46;99321.66;;;24.70;59.75
76603;BME280;65075;48.390;17.598;2023-07-24T03:02:12;99325.72;;;24.53;59.74
76603;BME280;65075;48.390;17.598;2023-07-24T03:04:37;99319.91;;;25.26;57.61
76603;BME280;65075;48.390;17.598;2023-07-24T03:07:03;99303.06;;;23.66;60.98
76603;BME280;65075;48.390;17.598;2023-07-24T03:09:29;99317.00;;;24.77;58.23
76603;BME280;65075;48.390;17.598;2023-07-24T03:11:54;99308.97;;;25.40;56.63
76603;BME280;65075;48.390;17.598;2023-07-24T03:14:20;99289.91;;;24.97;57.89
76603;BME280;65075;48.390;17.598;2023-07-24T03:16:45;99297.81;;;25.40;56.65
76603;BME280;65075;48.390;17.598;2023-07-24T03:19:11;99309.50;;;25.23;57.15
76603;BME280;65075;48.390;17.598;2023-07-24T03:21:36;99295.47;;;25.95;54.31
76603;BME280;65075;48.390;17.598;2023-07-24T03:24:02;99301.25;;;26.09;54.70
76603;BME280;65075;48.390;17.598;2023-07-24T03:26:27;99312.06;;;25.81;55.37
76603;BME280;65075;48.390;17.598;2023-07-24T03:28:53;99302.28;;;25.94;54.90
76603;BME280;65075;48.390;17.598;2023-07-24T03:31:18;99306.66;;;26.54;53.14
76603;BME280;65075;48.390;17.598;2023-07-24T03:33:44;99302.88;;;26.73;52.81
76603;BME280;65075;48.390;17.598;2023-07-24T03:36:09;99305.09;;;27.34;50.52
76603;BME280;65075;48.390;17.598;2023-07-24T03:38:35;99308.00;;;26.34;53.54
76603;BME280;65075;48.390;17.598;2023-07-24T03:41:00;99322.22;;;26.82;50.88
76603;BME280;65075;48.390;17.598;2023-07-24T03:43:26;99303.00;;;26.17;52.18
76603;BME280;65075;48.390;17.598;2023-07-24T03:45:51;99323.56;;;26.02;53.20
76603;BME280;65075;48.390;17.598;2023-07-24T03:48:17;99310.56;;;26.46;51.83
76603;BME280;65075;48.390;17.598;2023-07-24T03:50:42;99329.06;;;26.88;50.50
76603;BME280;65075;48.390;17.598;2023-07-24T03:53:09;99313.84;;;23.20;61.13
76603;BME280;65075;48.390;17.598;2023-07-24T03:55:34;99306.31;;;23.05;61.58
76603;BME280;65075;48.390;17.598;2023-07-24T03:58:00;99315.34;;;22.87;62.05
76603;BME280;65075;48.390;17.598;2023-07-24T04:00:25;99306.44;;;24.86;56.79
76603;BME280;65075;48.390;17.598;2023-07-24T04:02:51;99312.66;;;26.23;52.58
76603;BME280;65075;48.390;17.598;2023-07-24T04:05:16;99320.47;;;24.52;56.83
76603;BME280;65075;48.390;17.598;2023-07-24T04:07:42;99294.72;;;25.00;55.38
76603;BME280;65075;48.390;17.598;2023-07-24T04:10:08;99303.94;;;24.39;56.90
76603;BME280;65075;48.390;17.598;2023-07-24T04:12:33;99322.06;;;23.45;60.55
76603;BME280;65075;48.390;17.598;2023-07-24T04:14:59;99322.50;;;26.13;53.12
76603;BME280;65075;48.390;17.598;2023-07-24T04:17:24;99326.66;;;24.41;58.89
76603;BME280;65075;48.390;17.598;2023-07-24T04:19:50;99328.47;;;26.38;52.56
76603;BME280;65075;48.390;17.598;2023-07-24T04:22:15;99299.78;;;24.53;56.85
76603;BME280;65075;48.390;17.598;2023-07-24T04:24:41;99311.97;;;26.03;53.97
76603;BME280;65075;48.390;17.598;2023-07-24T04:27:06;99316.31;;;26.90;51.30
76603;BME280;65075;48.390;17.598;2023-07-24T04:29:32;99323.34;;;27.14;50.63
76603;BME280;65075;48.390;17.598;2023-07-24T04:31:57;99334.22;;;24.79;57.03
76603;BME280;65075;48.390;17.598;2023-07-24T04:34:23;99337.53;;;26.02;53.32
76603;BME280;65075;48.390;17.598;2023-07-24T04:36:48;99345.75;;;27.14;50.89
76603;BME280;65075;48.390;17.598;2023-07-24T04:39:14;99342.09;;;27.10;50.91
76603;BME280;65075;48.390;17.598;2023-07-24T04:41:39;99352.19;;;26.81;51.01
76603;BME280;65075;48.390;17.598;2023-07-24T04:44:05;99353.63;;;23.83;60.35
76603;BME280;65075;48.390;17.598;2023-07-24T04:46:30;99319.88;;;25.23;55.75
76603;BME280;65075;48.390;17.598;2023-07-24T04:48:56;99346.13;;;25.18;56.28
76603;BME280;65075;48.390;17.598;2023-07-24T04:51:22;99290.00;;;25.49;54.06
76603;BME280;65075;48.390;17.598;2023-07-24T04:53:48;99304.28;;;25.44;55.57
76603;BME280;65075;48.390;17.598;2023-07-24T04:56:13;99302.31;;;24.38;58.79
76603;BME280;65075;48.390;17.598;2023-07-24T04:58:39;99317.06;;;25.45;55.70
76603;BME280;65075;48.390;17.598;2023-07-24T05:01:05;99337.59;;;26.35;52.83
76603;BME280;65075;48.390;17.598;2023-07-24T05:03:31;99314.50;;;25.86;53.79
76603;BME280;65075;48.390;17.598;2023-07-24T05:05:57;99340.97;;;27.18;51.47
76603;BME280;65075;48.390;17.598;2023-07-24T05:08:23;99355.41;;;28.15;49.18
76603;BME280;65075;48.390;17.598;2023-07-24T05:10:58;99334.13;;;28.07;48.65
76603;BME280;65075;48.390;17.598;2023-07-24T05:13:25;99354.66;;;26.00;54.74
76603;BME280;65075;48.390;17.598;2023-07-24T05:15:50;99343.53;;;26.93;53.09
76603;BME280;65075;48.390;17.598;2023-07-24T05:18:16;99338.38;;;26.32;55.14
76603;BME280;65075;48.390;17.598;2023-07-24T05:20:46;99332.03;;;23.46;64.32
76603;BME280;65075;48.390;17.598;2023-07-24T05:23:13;99338.88;;;25.36;58.67
76603;BME280;65075;48.390;17.598;2023-07-24T05:25:38;99332.31;;;26.27;55.49
76603;BME280;65075;48.390;17.598;2023-07-24T05:28:04;99299.91;;;25.96;56.83
76603;BME280;65075;48.390;17.598;2023-07-24T05:30:30;99331.19;;;25.79;57.86
76603;BME280;65075;48.390;17.598;2023-07-24T05:32:55;99333.47;;;26.55;55.09
76603;BME280;65075;48.390;17.598;2023-07-24T05:35:21;99339.03;;;26.22;56.34
76603;BME280;65075;48.390;17.598;2023-07-24T05:37:46;99322.38;;;24.86;60.22
76603;BME280;65075;48.390;17.598;2023-07-24T05:40:12;99331.88;;;24.62;62.02
76603;BME280;65075;48.390;17.598;2023-07-24T05:42:37;99323.06;;;24.41;62.92
76603;BME280;65075;48.390;17.598;2023-07-24T05:45:08;99296.94;;;24.49;63.43
76603;BME280;65075;48.390;17.598;2023-07-24T05:47:34;99314.56;;;24.53;64.02
76603;BME280;65075;48.390;17.598;2023-07-24T05:50:00;99314.22;;;25.19;61.57
76603;BME280;65075;48.390;17.598;2023-07-24T05:52:25;99321.69;;;24.51;63.93
76603;BME280;65075;48.390;17.598;2023-07-24T05:54:51;99330.16;;;24.96;63.48
76603;BME280;65075;48.390;17.598;2023-07-24T05:57:16;99335.94;;;25.52;61.35
76603;BME280;65075;48.390;17.598;2023-07-24T05:59:42;99308.03;;;25.78;60.16
76603;BME280;65075;48.390;17.598;2023-07-24T06:02:08;99342.97;;;25.42;61.01
76603;BME280;65075;48.390;17.598;2023-07-24T06:04:34;99330.31;;;26.60;58.52
76603;BME280;65075;48.390;17.598;2023-07-24T06:07:00;99326.34;;;26.28;58.18
76603;BME280;65075;48.390;17.598;2023-07-24T06:09:26;99315.53;;;27.37;55.90
76603;BME280;65075;48.390;17.598;2023-07-24T06:11:51;99304.25;;;27.77;54.31
76603;BME280;65075;48.390;17.598;2023-07-24T06:14:17;99314.66;;;28.38;52.96
76603;BME280;65075;48.390;17.598;2023-07-24T06:16:42;99292.03;;;28.07;53.75
76603;BME280;65075;48.390;17.598;2023-07-24T06:19:08;99302.75;;;27.91;54.96
76603;BME280;65075;48.390;17.598;2023-07-24T06:21:33;99304.13;;;28.18;53.22
76603;BME280;65075;48.390;17.598;2023-07-24T06:23:59;99309.28;;;28.09;54.59
76603;BME280;65075;48.390;17.598;2023-07-24T06:26:24;99306.75;;;27.90;55.57
76603;BME280;65075;48.390;17.598;2023-07-24T06:28:50;99312.72;;;26.60;58.88
76603;BME280;65075;48.390;17.598;2023-07-24T06:31:15;99311.69;;;29.11;52.70
76603;BME280;65075;48.390;17.598;2023-07-24T06:33:41;99320.06;;;30.17;49.01
76603;BME280;65075;48.390;17.598;2023-07-24T06:36:10;99313.97;;;30.50;49.20
76603;BME280;65075;48.390;17.598;2023-07-24T06:38:36;99314.81;;;28.74;52.02
76603;BME280;65075;48.390;17.598;2023-07-24T06:41:01;99325.25;;;30.36;48.60
76603;BME280;65075;48.390;17.598;2023-07-24T06:43:28;99314.88;;;30.15;48.20
76603;BME280;65075;48.390;17.598;2023-07-24T06:45:54;99316.25;;;30.76;47.40
76603;BME280;65075;48.390;17.598;2023-07-24T06:48:19;99313.16;;;30.46;47.90
76603;BME280;65075;48.390;17.598;2023-07-24T06:50:45;99319.69;;;31.08;46.54
76603;BME280;65075;48.390;17.598;2023-07-24T06:53:10;99336.09;;;30.34;48.65
76603;BME280;65075;48.390;17.598;2023-07-24T06:55:36;99329.94;;;32.62;42.40
76603;BME280;65075;48.390;17.598;2023-07-24T06:58:02;99311.75;;;32.33;42.94
76603;BME280;65075;48.390;17.598;2023-07-24T07:00:27;99316.44;;;30.20;48.97
76603;BME280;65075;48.390;17.598;2023-07-24T07:02:53;99301.00;;;31.80;44.84
76603;BME280;65075;48.390;17.598;2023-07-24T07:05:18;99295.22;;;30.91;47.04
76603;BME280;65075;48.390;17.598;2023-07-24T07:07:44;99301.63;;;32.36;43.90
76603;BME280;65075;48.390;17.598;2023-07-24T07:10:10;99267.19;;;30.70;47.02
76603;BME280;65075;48.390;17.598;2023-07-24T07:12:35;99291.31;;;30.71;46.87
76603;BME280;65075;48.390;17.598;2023-07-24T07:15:01;99283.97;;;32.62;43.48
76603;BME280;65075;48.390;17.598;2023-07-24T07:17:28;99273.25;;;32.12;42.14
76603;BME280;65075;48.390;17.598;2023-07-24T07:19:53;99278.44;;;31.77;43.96
76603;BME280;65075;48.390;17.598;2023-07-24T07:22:21;99276.88;;;32.47;42.42
76603;BME280;65075;48.390;17.598;2023-07-24T07:24:47;99277.59;;;33.11;41.26
76603;BME280;65075;48.390;17.598;2023-07-24T07:27:12;99279.47;;;33.21;40.82
76603;BME280;65075;48.390;17.598;2023-07-24T07:29:38;99278.16;;;33.76;40.25
76603;BME280;65075;48.390;17.598;2023-07-24T07:32:04;99283.38;;;34.20;39.07
76603;BME280;65075;48.390;17.598;2023-07-24T07:34:29;99273.97;;;32.84;41.56
76603;BME280;65075;48.390;17.598;2023-07-24T07:36:55;99281.84;;;34.35;39.23
76603;BME280;65075;48.390;17.598;2023-07-24T07:39:20;99282.53;;;35.79;36.25
76603;BME280;65075;48.390;17.598;2023-07-24T07:41:46;99286.69;;;33.95;38.02
76603;BME280;65075;48.390;17.598;2023-07-24T07:44:11;99280.19;;;34.93;37.27
76603;BME280;65075;48.390;17.598;2023-07-24T07:46:37;99277.16;;;32.86;40.82
76603;BME280;65075;48.390;17.598;2023-07-24T07:49:02;99261.31;;;32.01;43.03
76603;BME280;65075;48.390;17.598;2023-07-24T07:51:27;99251.78;;;34.22;37.71
76603;BME280;65075;48.390;17.598;2023-07-24T07:53:53;99243.06;;;34.32;37.67
76603;BME280;65075;48.390;17.598;2023-07-24T07:56:19;99258.69;;;35.28;35.61
76603;BME280;65075;48.390;17.598;2023-07-24T07:58:44;99246.41;;;32.88;41.37
76603;BME280;65075;48.390;17.598;2023-07-24T08:01:10;99226.81;;;33.04;40.88
76603;BME280;65075;48.390;17.598;2023-07-24T08:03:35;99203.69;;;33.79;39.99
76603;BME280;65075;48.390;17.598;2023-07-24T08:06:01;99213.31;;;33.62;38.38
76603;BME280;65075;48.390;17.598;2023-07-24T08:08:29;99211.81;;;33.77;37.55
76603;BME280;65075;48.390;17.598;2023-07-24T08:10:55;99212.19;;;33.56;37.93
76603;BME280;65075;48.390;17.598;2023-07-24T08:13:20;99212.22;;;35.06;35.70
76603;BME280;65075;48.390;17.598;2023-07-24T08:15:46;99214.16;;;34.77;36.12
76603;BME280;65075;48.390;17.598;2023-07-24T08:18:11;99197.72;;;33.04;41.13
76603;BME280;65075;48.390;17.598;2023-07-24T08:20:37;99189.53;;;34.90;36.14
76603;BME280;65075;48.390;17.598;2023-07-24T08:23:04;99195.38;;;35.31;35.60
76603;BME280;65075;48.390;17.598;2023-07-24T08:25:29;99206.47;;;35.87;35.40
76603;BME280;65075;48.390;17.598;2023-07-24T08:27:55;99200.16;;;34.70;36.98
76603;BME280;65075;48.390;17.598;2023-07-24T08:30:20;99180.84;;;34.09;35.89
76603;BME280;65075;48.390;17.598;2023-07-24T08:32:46;99194.81;;;33.96;37.63
76603;BME280;65075;48.390;17.598;2023-07-24T08:35:14;99202.09;;;34.17;37.75
76603;BME280;65075;48.390;17.598;2023-07-24T08:37:42;99194.66;;;34.43;37.54
76603;BME280;65075;48.390;17.598;2023-07-24T08:40:09;99194.41;;;34.53;37.32
76603;BME280;65075;48.390;17.598;2023-07-24T08:42:38;99201.47;;;35.62;34.87
76603;BME280;65075;48.390;17.598;2023-07-24T08:45:11;99195.38;;;34.67;35.87
76603;BME280;65075;48.390;17.598;2023-07-24T08:47:42;99194.84;;;31.93;41.56
76603;BME280;65075;48.390;17.598;2023-07-24T08:50:08;99179.31;;;36.14;34.11
76603;BME280;65075;48.390;17.598;2023-07-24T08:52:37;99187.84;;;34.40;35.28
76603;BME280;65075;48.390;17.598;2023-07-24T08:55:05;99190.66;;;34.40;34.57
76603;BME280;65075;48.390;17.598;2023-07-24T08:57:31;99176.53;;;34.01;37.55
76603;BME280;65075;48.390;17.598;2023-07-24T08:59:56;99181.84;;;34.90;35.98
76603;BME280;65075;48.390;17.598;2023-07-24T09:02:23;99168.22;;;35.63;33.85
76603;BME280;65075;48.390;17.598;2023-07-24T09:04:49;99177.09;;;35.65;33.94
76603;BME280;65075;48.390;17.598;2023-07-24T09:07:14;99167.06;;;35.89;32.72
76603;BME280;65075;48.390;17.598;2023-07-24T09:09:40;99189.72;;;32.45;39.48
76603;BME280;65075;48.390;17.598;2023-07-24T09:12:06;99171.16;;;32.98;38.58
76603;BME280;65075;48.390;17.598;2023-07-24T09:14:31;99176.41;;;34.80;34.89
76603;BME280;65075;48.390;17.598;2023-07-24T09:17:09;99171.19;;;37.17;30.58
76603;BME280;65075;48.390;17.598;2023-07-24T09:19:35;99174.91;;;37.27;31.00
76603;BME280;65075;48.390;17.598;2023-07-24T09:22:11;99178.22;;;35.96;32.18
76603;BME280;65075;48.390;17.598;2023-07-24T09:24:38;99156.38;;;35.03;34.69
76603;BME280;65075;48.390;17.598;2023-07-24T09:27:05;99155.25;;;34.32;36.20
76603;BME280;65075;48.390;17.598;2023-07-24T09:29:33;99162.16;;;33.06;38.52
76603;BME280;65075;48.390;17.598;2023-07-24T09:32:00;99145.00;;;34.55;35.38
76603;BME280;65075;48.390;17.598;2023-07-24T09:34:25;99131.63;;;33.64;37.25
76603;BME280;65075;48.390;17.598;2023-07-24T09:36:52;99113.63;;;33.31;38.56
76603;BME280;65075;48.390;17.598;2023-07-24T09:39:25;99114.66;;;34.19;36.70
76603;BME280;65075;48.390;17.598;2023-07-24T09:41:51;99087.25;;;36.25;32.81
76603;BME280;65075;48.390;17.598;2023-07-24T09:44:18;99132.84;;;33.39;38.25
76603;BME280;65075;48.390;17.598;2023-07-24T09:46:43;99101.75;;;34.18;35.91
76603;BME280;65075;48.390;17.598;2023-07-24T09:49:09;99109.31;;;35.67;33.42
76603;BME280;65075;48.390;17.598;2023-07-24T09:51:37;99092.00;;;35.32;34.84
76603;BME280;65075;48.390;17.598;2023-07-24T09:54:27;99085.88;;;35.63;33.82
76603;BME280;65075;48.390;17.598;2023-07-24T09:56:58;99075.81;;;34.00;36.76
76603;BME280;65075;48.390;17.598;2023-07-24T09:59:26;99103.63;;;32.80;39.47
76603;BME280;65075;48.390;17.598;2023-07-24T10:01:55;99082.88;;;33.13;37.63
76603;BME280;65075;48.390;17.598;2023-07-24T10:04:21;99071.63;;;35.79;32.54
76603;BME280;65075;48.390;17.598;2023-07-24T10:06:51;99060.75;;;35.90;32.67
76603;BME280;65075;48.390;17.598;2023-07-24T10:09:17;99064.63;;;35.96;32.65
76603;BME280;65075;48.390;17.598;2023-07-24T10:11:44;99073.63;;;33.72;37.94
76603;BME280;65075;48.390;17.598;2023-07-24T10:14:11;99062.47;;;33.65;35.67
76603;BME280;65075;48.390;17.598;2023-07-24T10:16:37;99049.09;;;33.46;36.41
76603;BME280;65075;48.390;17.598;2023-07-24T10:19:13;99052.38;;;34.51;34.81
76603;BME280;65075;48.390;17.598;2023-07-24T10:21:47;99052.31;;;35.45;33.13
76603;BME280;65075;48.390;17.598;2023-07-24T10:24:17;99049.81;;;36.77;30.62
76603;BME280;65075;48.390;17.598;2023-07-24T10:26:43;99018.88;;;34.95;32.92
76603;BME280;65075;48.390;17.598;2023-07-24T10:29:09;99037.38;;;34.99;32.82
76603;BME280;65075;48.390;17.598;2023-07-24T10:31:35;99044.09;;;36.55;30.61
76603;BME280;65075;48.390;17.598;2023-07-24T10:34:07;99031.09;;;34.92;32.91
76603;BME280;65075;48.390;17.598;2023-07-24T10:36:35;99030.78;;;36.14;29.85
76603;BME280;65075;48.390;17.598;2023-07-24T10:39:01;99023.00;;;35.77;31.89
76603;BME280;65075;48.390;17.598;2023-07-24T10:41:37;99015.66;;;35.50;32.15
76603;BME280;65075;48.390;17.598;2023-07-24T10:44:04;98954.28;;;34.58;31.97
76603;BME280;65075;48.390;17.598;2023-07-24T10:46:40;98998.75;;;33.92;34.64
76603;BME280;65075;48.390;17.598;2023-07-24T10:49:07;98989.69;;;35.52;32.10
76603;BME280;65075;48.390;17.598;2023-07-24T10:51:33;98984.84;;;33.26;34.37
76603;BME280;65075;48.390;17.598;2023-07-24T10:54:01;98971.78;;;34.69;32.09
76603;BME280;65075;48.390;17.598;2023-07-24T10:56:27;98964.28;;;34.91;31.61
76603;BME280;65075;48.390;17.598;2023-07-24T10:58:53;98975.16;;;34.31;32.79
76603;BME280;65075;48.390;17.598;2023-07-24T11:01:18;98962.38;;;33.91;33.86
76603;BME280;65075;48.390;17.598;2023-07-24T11:03:44;98950.81;;;34.95;31.13
76603;BME280;65075;48.390;17.598;2023-07-24T11:06:28;98945.00;;;34.09;33.33
76603;BME280;65075;48.390;17.598;2023-07-24T11:08:56;98942.25;;;34.21;33.46
76603;BME280;65075;48.390;17.598;2023-07-24T11:11:28;98943.06;;;34.22;32.56
76603;BME280;65075;48.390;17.598;2023-07-24T11:13:54;98926.88;;;35.37;31.28
76603;BME280;65075;48.390;17.598;2023-07-24T11:16:20;98928.03;;;34.70;31.71
76603;BME280;65075;48.390;17.598;2023-07-24T11:18:47;98924.50;;;34.49;32.46
76603;BME280;65075;48.390;17.598;2023-07-24T11:21:13;98929.75;;;34.03;31.79
76603;BME280;65075;48.390;17.598;2023-07-24T11:24:06;98912.47;;;34.45;31.42
76603;BME280;65075;48.390;17.598;2023-07-24T11:26:33;98904.28;;;33.51;32.47
76603;BME280;65075;48.390;17.598;2023-07-24T11:28:59;98906.19;;;33.02;33.22
76603;BME280;65075;48.390;17.598;2023-07-24T11:31:25;98919.22;;;33.51;32.82
76603;BME280;65075;48.390;17.598;2023-07-24T11:33:52;98902.06;;;33.94;33.04
76603;BME280;65075;48.390;17.598;2023-07-24T11:36:19;98891.50;;;35.00;30.05
76603;BME280;65075;48.390;17.598;2023-07-24T11:38:48;98849.34;;;33.84;31.21
76603;BME280;65075;48.390;17.598;2023-07-24T11:41:16;98875.94;;;34.35;31.29
76603;BME280;65075;48.390;17.598;2023-07-24T11:43:46;98871.72;;;34.27;31.91
76603;BME280;65075;48.390;17.598;2023-07-24T11:46:22;98863.09;;;34.88;31.03
76603;BME280;65075;48.390;17.598;2023-07-24T11:48:48;98876.44;;;34.46;30.68
76603;BME280;65075;48.390;17.598;2023-07-24T11:51:14;98864.09;;;34.69;29.37
76603;BME280;65075;48.390;17.598;2023-07-24T11:53:40;98862.84;;;35.36;28.95
76603;BME280;65075;48.390;17.598;2023-07-24T11:56:14;98852.94;;;34.33;31.08
76603;BME280;65075;48.390;17.598;2023-07-24T11:58:39;98865.22;;;32.90;32.01
76603;BME280;65075;48.390;17.598;2023-07-24T12:01:06;98854.44;;;34.05;30.69
76603;BME280;65075;48.390;17.598;2023-07-24T12:03:31;98864.72;;;33.15;32.74
76603;BME280;65075;48.390;17.598;2023-07-24T12:05:57;98838.53;;;33.95;31.80
76603;BME280;65075;48.390;17.598;2023-07-24T12:08:32;98846.66;;;33.45;31.15
76603;BME280;65075;48.390;17.598;2023-07-24T12:10:58;98833.53;;;34.31;31.10
76603;BME280;65075;48.390;17.598;2023-07-24T12:13:23;98837.25;;;34.57;28.66
76603;BME280;65075;48.390;17.598;2023-07-24T12:15:49;98813.66;;;34.47;29.15
76603;BME280;65075;48.390;17.598;2023-07-24T12:18:15;98832.88;;;34.11;28.55
76603;BME280;65075;48.390;17.598;2023-07-24T12:20:43;98785.88;;;34.42;30.47
76603;BME280;65075;48.390;17.598;2023-07-24T12:23:09;98817.91;;;34.39;31.54
76603;BME280;65075;48.390;17.598;2023-07-24T12:25:34;98819.88;;;33.97;30.10
76603;BME280;65075;48.390;17.598;2023-07-24T12:28:00;98820.81;;;34.23;31.66
76603;BME280;65075;48.390;17.598;2023-07-24T12:30:25;98811.47;;;34.10;30.83
76603;BME280;65075;48.390;17.598;2023-07-24T12:32:51;98793.81;;;34.89;28.17
76603;BME280;65075;48.390;17.598;2023-07-24T12:35:17;98798.66;;;34.34;29.31
76603;BME280;65075;48.390;17.598;2023-07-24T12:37:45;98796.69;;;35.01;27.98
76603;BME280;65075;48.390;17.598;2023-07-24T12:40:11;98786.25;;;35.36;27.79
76603;BME280;65075;48.390;17.598;2023-07-24T12:42:37;98746.03;;;34.21;29.13
76603;BME280;65075;48.390;17.598;2023-07-24T12:45:03;98784.06;;;34.36;29.41
76603;BME280;65075;48.390;17.598;2023-07-24T12:47:30;98806.78;;;33.55;28.18